createdAt,value
2019-02-25T00:01:25.067Z,1.00
2019-02-25T00:03:54.212Z,1.00
2019-02-25T00:06:23.855Z,0.90
2019-02-25T00:08:53.011Z,0.90
2019-02-25T00:11:22.403Z,0.90
2019-02-25T00:13:51.830Z,0.90
2019-02-25T00:16:21.038Z,0.90
2019-02-25T00:18:50.407Z,0.80
2019-02-25T00:21:20.648Z,0.80
2019-02-25T00:23:50.019Z,0.80
2019-02-25T00:26:19.431Z,0.80
2019-02-25T00:28:49.058Z,0.80
2019-02-25T00:31:18.172Z,0.80
2019-02-25T00:33:47.843Z,0.80
2019-02-25T00:36:17.490Z,0.70
2019-02-25T00:38:46.931Z,0.70
2019-02-25T00:41:16.347Z,0.70
2019-02-25T00:43:46.040Z,0.70
2019-02-25T00:46:18.235Z,0.70
2019-02-25T00:48:47.673Z,0.60
2019-02-25T00:51:17.044Z,0.60
2019-02-25T00:53:46.223Z,0.60
2019-02-25T00:56:15.353Z,0.60
2019-02-25T00:58:44.787Z,0.60
2019-02-25T01:01:13.922Z,0.50
2019-02-25T01:03:43.058Z,0.50
2019-02-25T01:06:12.699Z,0.50
2019-02-25T01:08:42.108Z,0.50
2019-02-25T01:11:11.484Z,0.40
2019-02-25T01:13:40.896Z,0.40
2019-02-25T01:16:10.009Z,0.40
2019-02-25T01:18:39.427Z,0.30
2019-02-25T01:21:08.871Z,0.40
2019-02-25T01:23:38.010Z,0.30
2019-02-25T01:26:07.377Z,0.30
2019-02-25T01:28:36.795Z,0.20
2019-02-25T01:31:06.440Z,0.20
2019-02-25T01:33:35.855Z,0.20
2019-02-25T01:36:05.543Z,0.10
2019-02-25T01:38:34.675Z,0.10
2019-02-25T01:41:03.867Z,0.10
2019-02-25T01:43:33.270Z,0.00
2019-02-25T01:46:02.646Z,0.00
2019-02-25T01:48:32.059Z,0.00
2019-02-25T01:51:01.163Z,0.00
2019-02-25T01:53:30.560Z,0.00
2019-02-25T01:55:59.928Z,0.00
2019-02-25T01:58:29.932Z,0.00
2019-02-25T02:00:59.847Z,-0.10
2019-02-25T02:03:29.268Z,-0.10
2019-02-25T02:05:58.450Z,-0.10
2019-02-25T02:08:27.851Z,-0.10
2019-02-25T02:10:57.229Z,-0.10
2019-02-25T02:13:26.979Z,-0.10
2019-02-25T02:15:56.474Z,-0.10
2019-02-25T02:18:25.947Z,-0.10
2019-02-25T02:20:55.132Z,-0.10
2019-02-25T02:23:24.564Z,-0.20
2019-02-25T02:25:54.215Z,-0.20
2019-02-25T02:28:23.360Z,-0.20
2019-02-25T02:30:52.475Z,-0.20
2019-02-25T02:33:22.417Z,-0.20
2019-02-25T02:35:51.597Z,-0.20
2019-02-25T02:38:20.964Z,-0.20
2019-02-25T02:40:50.371Z,-0.20
2019-02-25T02:43:19.763Z,-0.20
2019-02-25T02:45:52.853Z,-0.20
2019-02-25T02:48:38.460Z,-0.30
2019-02-25T02:51:07.935Z,-0.30
2019-02-25T02:53:37.423Z,-0.30
2019-02-25T02:56:06.535Z,-0.30
2019-02-25T02:58:36.292Z,-0.30
2019-02-25T03:01:05.501Z,-0.40
2019-02-25T03:03:35.223Z,-0.40
2019-02-25T03:06:04.643Z,-0.50
2019-02-25T03:08:34.033Z,-0.50
2019-02-25T03:11:03.513Z,-0.50
2019-02-25T03:13:33.180Z,-0.50
2019-02-25T03:16:03.008Z,-0.50
2019-02-25T03:18:32.390Z,-0.50
2019-02-25T03:21:01.555Z,-0.50
2019-02-25T03:23:31.476Z,-0.50
2019-02-25T03:26:00.624Z,-0.50
2019-02-25T03:28:30.029Z,-0.50
2019-02-25T03:30:59.596Z,-0.60
2019-02-25T03:33:28.984Z,-0.60
2019-02-25T03:35:58.466Z,-0.60
2019-02-25T03:38:27.855Z,-0.60
2019-02-25T03:40:57.278Z,-0.60
2019-02-25T03:43:27.029Z,-0.60
2019-02-25T03:45:56.783Z,-0.60
2019-02-25T03:48:25.910Z,-0.70
2019-02-25T03:50:55.618Z,-0.70
2019-02-25T03:53:25.002Z,-0.70
2019-02-25T03:55:54.151Z,-0.70
2019-02-25T03:58:23.533Z,-0.80
2019-02-25T04:00:53.375Z,-0.80
2019-02-25T04:03:22.571Z,-0.80
2019-02-25T04:05:52.325Z,-0.90
2019-02-25T04:08:21.447Z,-0.90
2019-02-25T04:10:50.923Z,-0.90
2019-02-25T04:13:20.044Z,-0.90
2019-02-25T04:15:49.835Z,-0.90
2019-02-25T04:18:18.958Z,-0.90
2019-02-25T04:20:48.402Z,-0.90
2019-02-25T04:23:18.123Z,-0.90
2019-02-25T04:25:47.551Z,-0.80
2019-02-25T04:28:16.655Z,-0.80
2019-02-25T04:30:46.348Z,-0.80
2019-02-25T04:33:16.011Z,-0.70
2019-02-25T04:35:45.705Z,-0.70
2019-02-25T04:38:15.359Z,-0.60
2019-02-25T04:40:44.763Z,-0.70
2019-02-25T04:43:13.884Z,-0.60
2019-02-25T04:45:43.039Z,-0.60
2019-02-25T04:48:12.162Z,-0.60
2019-02-25T04:50:43.216Z,-0.70
2019-02-25T04:53:12.671Z,-0.70
2019-02-25T04:55:42.097Z,-0.70
2019-02-25T04:58:11.472Z,-0.70
2019-02-25T05:00:40.703Z,-0.70
2019-02-25T05:03:09.817Z,-0.70
2019-02-25T05:05:39.064Z,-0.70
2019-02-25T05:08:08.236Z,-0.70
2019-02-25T05:10:37.465Z,-0.80
2019-02-25T05:13:07.255Z,-0.80
2019-02-25T05:15:37.079Z,-0.80
2019-02-25T05:18:06.586Z,-0.80
2019-02-25T05:20:35.852Z,-0.90
2019-02-25T05:23:05.359Z,-0.90
2019-02-25T05:25:34.514Z,-0.90
2019-02-25T05:28:05.645Z,-0.90
2019-02-25T05:30:34.887Z,-0.90
2019-02-25T05:33:04.276Z,-0.90
2019-02-25T05:35:33.531Z,-1.00
2019-02-25T05:38:02.981Z,-1.00
2019-02-25T05:40:32.411Z,-1.00
2019-02-25T05:43:01.863Z,-1.00
2019-02-25T05:45:31.280Z,-1.00
2019-02-25T05:48:00.395Z,-1.00
2019-02-25T05:50:29.891Z,-1.10
2019-02-25T05:52:58.995Z,-1.10
2019-02-25T05:55:28.465Z,-1.10
2019-02-25T05:57:57.917Z,-1.10
2019-02-25T06:00:28.454Z,-1.10
2019-02-25T06:02:57.616Z,-1.10
2019-02-25T06:05:27.309Z,-1.10
2019-02-25T06:07:56.500Z,-1.10
2019-02-25T06:10:26.217Z,-1.00
2019-02-25T06:12:55.421Z,-1.00
2019-02-25T06:15:24.891Z,-1.00
2019-02-25T06:17:54.320Z,-1.00
2019-02-25T06:20:23.707Z,-1.00
2019-02-25T06:22:53.272Z,-1.10
2019-02-25T06:25:22.917Z,-1.10
2019-02-25T06:27:52.431Z,-0.90
2019-02-25T06:30:22.034Z,-0.80
2019-02-25T06:32:51.641Z,-0.70
2019-02-25T06:35:20.751Z,-0.70
2019-02-25T06:37:49.930Z,-0.70
2019-02-25T06:40:19.077Z,-0.70
2019-02-25T06:42:48.302Z,-0.60
2019-02-25T06:45:18.148Z,-0.50
2019-02-25T06:47:48.311Z,-0.30
2019-02-25T06:50:17.515Z,-0.10
2019-02-25T06:52:46.956Z,0.10
2019-02-25T06:55:16.450Z,0.20
2019-02-25T06:57:45.604Z,0.60
2019-02-25T07:00:16.762Z,1.10
2019-02-25T07:02:46.470Z,1.90
2019-02-25T07:05:47.280Z,2.80
2019-02-25T07:08:20.970Z,3.50
2019-02-25T07:11:12.230Z,4.30
2019-02-25T07:13:50.659Z,4.80
2019-02-25T07:16:39.155Z,4.80
2019-02-25T07:19:33.608Z,4.60
2019-02-25T07:22:25.175Z,4.20
2019-02-25T07:25:09.393Z,3.80
2019-02-25T07:27:51.075Z,3.40
2019-02-25T07:30:47.867Z,3.10
2019-02-25T07:33:35.267Z,2.90
2019-02-25T07:36:21.982Z,2.70
2019-02-25T07:39:19.323Z,2.60
2019-02-25T07:42:06.663Z,2.50
2019-02-25T07:45:04.103Z,2.40
2019-02-25T07:47:52.590Z,2.40
2019-02-25T07:50:27.335Z,2.40
2019-02-25T07:53:14.011Z,2.40
2019-02-25T07:56:05.739Z,2.40
2019-02-25T07:58:41.171Z,2.50
2019-02-25T08:01:32.871Z,2.60
2019-02-25T08:04:13.638Z,2.60
2019-02-25T08:07:04.975Z,2.70
2019-02-25T08:09:43.927Z,2.80
2019-02-25T08:12:34.931Z,2.80
2019-02-25T08:15:25.636Z,2.90
2019-02-25T08:18:08.428Z,2.90
2019-02-25T08:21:03.175Z,3.00
2019-02-25T08:23:44.163Z,3.10
2019-02-25T08:26:30.734Z,3.10
2019-02-25T08:29:16.932Z,3.20
2019-02-25T08:32:04.095Z,3.20
2019-02-25T08:34:59.839Z,3.30
2019-02-25T08:37:48.219Z,3.50
2019-02-25T08:40:55.780Z,3.60
2019-02-25T08:43:39.328Z,3.70
2019-02-25T08:46:20.144Z,3.80
2019-02-25T08:48:58.949Z,3.90
2019-02-25T08:51:28.052Z,4.00
2019-02-25T08:53:57.620Z,4.10
2019-02-25T08:56:27.001Z,4.20
2019-02-25T08:58:56.499Z,4.30
2019-02-25T09:01:25.603Z,4.40
2019-02-25T09:03:55.027Z,4.60
2019-02-25T09:06:27.269Z,4.70
2019-02-25T09:08:59.091Z,4.80
2019-02-25T09:11:28.775Z,4.90
2019-02-25T09:13:57.963Z,5.10
2019-02-25T09:16:27.080Z,5.20
2019-02-25T09:18:57.933Z,5.20
2019-02-25T09:21:31.893Z,5.30
2019-02-25T09:23:58.551Z,5.40
2019-02-25T09:26:27.650Z,5.50
2019-02-25T09:28:57.470Z,5.60
2019-02-25T09:31:26.651Z,5.70
2019-02-25T09:33:56.148Z,5.80
2019-02-25T09:36:25.832Z,5.90
2019-02-25T09:38:56.724Z,5.90
2019-02-25T09:41:29.870Z,6.10
2019-02-25T09:43:57.402Z,6.20
2019-02-25T09:46:27.043Z,6.30
2019-02-25T09:48:56.485Z,6.40
2019-02-25T09:51:25.584Z,6.50
2019-02-25T09:53:55.283Z,6.60
2019-02-25T09:56:24.395Z,6.70
2019-02-25T09:58:53.567Z,6.80
2019-02-25T10:01:22.945Z,7.00
2019-02-25T10:03:52.395Z,7.10
2019-02-25T10:06:21.499Z,7.30
2019-02-25T10:08:50.971Z,7.40
2019-02-25T10:11:20.611Z,7.50
2019-02-25T10:13:51.790Z,7.70
2019-02-25T10:16:23.940Z,7.80
2019-02-25T10:18:53.219Z,7.90
2019-02-25T10:21:22.331Z,8.10
2019-02-25T10:23:51.774Z,8.20
2019-02-25T10:26:21.149Z,8.30
2019-02-25T10:28:50.707Z,8.40
2019-02-25T10:31:20.356Z,8.40
2019-02-25T10:33:50.838Z,8.50
2019-02-25T10:36:20.319Z,8.60
2019-02-25T10:38:49.569Z,8.70
2019-02-25T10:41:21.221Z,8.80
2019-02-25T10:43:50.343Z,8.90
2019-02-25T10:46:19.967Z,8.90
2019-02-25T10:48:50.736Z,9.00
2019-02-25T10:51:20.310Z,9.10
2019-02-25T10:53:51.488Z,9.20
2019-02-25T10:56:54.116Z,9.30
2019-02-25T10:59:25.959Z,9.40
2019-02-25T11:01:55.379Z,9.60
2019-02-25T11:04:26.243Z,9.70
2019-02-25T11:06:55.495Z,9.80
2019-02-25T11:09:33.190Z,9.90
2019-02-25T11:12:02.912Z,10.00
2019-02-25T11:14:33.334Z,10.20
2019-02-25T11:17:03.278Z,10.30
2019-02-25T11:19:32.996Z,10.40
2019-02-25T11:22:02.195Z,10.50
2019-02-25T11:24:31.437Z,10.60
2019-02-25T11:27:01.447Z,10.70
2019-02-25T11:29:32.231Z,10.70
2019-02-25T11:32:01.346Z,10.80
2019-02-25T11:34:31.645Z,10.90
2019-02-25T11:37:02.747Z,10.90
2019-02-25T11:39:33.074Z,10.90
2019-02-25T11:42:05.528Z,11.00
2019-02-25T11:44:34.838Z,11.00
2019-02-25T11:47:04.021Z,11.10
2019-02-25T11:49:33.474Z,11.10
2019-02-25T11:52:02.908Z,11.20
2019-02-25T11:54:32.391Z,11.40
2019-02-25T11:57:01.951Z,11.60
2019-02-25T11:59:31.120Z,11.60
2019-02-25T12:02:00.504Z,11.70
2019-02-25T12:04:30.480Z,11.80
2019-02-25T12:06:59.939Z,11.90
2019-02-25T12:09:29.448Z,12.00
2019-02-25T12:11:59.075Z,12.10
2019-02-25T12:14:28.271Z,12.20
2019-02-25T12:16:57.647Z,12.20
2019-02-25T12:19:27.099Z,12.30
2019-02-25T12:21:56.807Z,12.30
2019-02-25T12:24:26.692Z,12.30
2019-02-25T12:26:58.483Z,12.40
2019-02-25T12:29:30.572Z,12.40
2019-02-25T12:31:59.743Z,12.50
2019-02-25T12:34:28.907Z,12.60
2019-02-25T12:36:58.547Z,12.60
2019-02-25T12:39:27.775Z,12.70
2019-02-25T12:41:57.671Z,12.80
2019-02-25T12:44:27.375Z,12.80
2019-02-25T12:46:57.099Z,12.90
2019-02-25T12:49:26.275Z,13.00
2019-02-25T12:51:55.655Z,13.00
2019-02-25T12:54:24.827Z,13.00
2019-02-25T12:56:54.527Z,13.10
2019-02-25T12:59:23.719Z,13.10
2019-02-25T13:01:52.839Z,13.10
2019-02-25T13:04:22.087Z,13.20
2019-02-25T13:06:51.544Z,13.20
2019-02-25T13:09:20.810Z,13.20
2019-02-25T13:11:50.299Z,13.20
2019-02-25T13:14:19.480Z,13.20
2019-02-25T13:16:49.217Z,13.30
2019-02-25T13:19:18.640Z,13.30
2019-02-25T13:21:48.163Z,13.30
2019-02-25T13:24:17.804Z,13.40
2019-02-25T13:26:48.907Z,13.40
2019-02-25T13:29:20.103Z,13.50
2019-02-25T13:31:49.644Z,13.50
2019-02-25T13:34:19.082Z,13.50
2019-02-25T13:36:48.592Z,13.50
2019-02-25T13:39:18.047Z,13.60
2019-02-25T13:41:47.360Z,13.60
2019-02-25T13:44:17.599Z,13.60
2019-02-25T13:46:46.890Z,13.60
2019-02-25T13:49:16.615Z,13.60
2019-02-25T13:51:46.111Z,13.60
2019-02-25T13:54:15.300Z,13.70
2019-02-25T13:56:44.858Z,13.70
2019-02-25T13:59:14.504Z,13.70
2019-02-25T14:01:44.058Z,13.70
2019-02-25T14:04:13.520Z,13.70
2019-02-25T14:06:43.118Z,13.80
2019-02-25T14:09:13.139Z,13.70
2019-02-25T14:11:42.642Z,13.80
2019-02-25T14:14:12.319Z,13.80
2019-02-25T14:16:43.318Z,13.80
2019-02-25T14:19:13.059Z,13.80
2019-02-25T14:21:42.336Z,13.80
2019-02-25T14:24:11.790Z,13.90
2019-02-25T14:26:41.047Z,13.90
2019-02-25T14:29:11.349Z,13.90
2019-02-25T14:31:40.874Z,13.90
2019-02-25T14:34:10.591Z,13.90
2019-02-25T14:36:39.855Z,13.90
2019-02-25T14:39:24.902Z,14.00
2019-02-25T14:41:54.446Z,14.00
2019-02-25T14:44:21.908Z,14.00
2019-02-25T14:46:51.157Z,14.00
2019-02-25T14:49:21.291Z,14.10
2019-02-25T14:51:50.531Z,14.10
2019-02-25T14:54:21.790Z,14.20
2019-02-25T14:56:52.728Z,14.20
2019-02-25T14:59:22.761Z,14.20
2019-02-25T15:01:52.272Z,14.20
2019-02-25T15:04:21.456Z,14.20
2019-02-25T15:06:51.859Z,14.20
2019-02-25T15:09:21.323Z,14.20
2019-02-25T15:11:51.357Z,14.20
2019-02-25T15:14:22.615Z,14.20
2019-02-25T15:16:52.238Z,14.20
2019-02-25T15:19:21.708Z,14.20
2019-02-25T15:21:52.168Z,14.20
2019-02-25T15:24:21.802Z,14.20
2019-02-25T15:26:51.353Z,14.20
2019-02-25T15:29:20.614Z,14.20
2019-02-25T15:31:50.582Z,14.10
2019-02-25T15:34:21.286Z,14.10
2019-02-25T15:36:50.830Z,14.00
2019-02-25T15:39:20.400Z,14.00
2019-02-25T15:41:50.899Z,13.90
2019-02-25T15:44:20.497Z,13.90
2019-02-25T15:46:49.772Z,14.00
2019-02-25T15:49:19.665Z,14.00
2019-02-25T15:51:49.868Z,13.90
2019-02-25T15:54:19.390Z,13.90
2019-02-25T15:56:49.171Z,13.80
2019-02-25T15:59:18.635Z,13.80
2019-02-25T16:01:48.423Z,13.70
2019-02-25T16:04:17.955Z,13.60
2019-02-25T16:06:47.278Z,13.60
2019-02-25T16:09:19.580Z,13.50
2019-02-25T16:11:49.015Z,13.60
2019-02-25T16:14:19.137Z,13.50
2019-02-25T16:16:49.817Z,13.50
2019-02-25T16:19:19.000Z,13.40
2019-02-25T16:21:48.274Z,13.40
2019-02-25T16:24:18.942Z,13.40
2019-02-25T16:26:48.913Z,13.30
2019-02-25T16:29:18.854Z,13.40
2019-02-25T16:31:49.040Z,13.30
2019-02-25T16:34:20.678Z,13.20
2019-02-25T16:36:52.039Z,13.20
2019-02-25T16:39:20.799Z,13.10
2019-02-25T16:41:50.304Z,13.10
2019-02-25T16:44:19.791Z,13.00
2019-02-25T16:46:50.711Z,12.90
2019-02-25T16:49:21.329Z,12.80
2019-02-25T16:51:53.067Z,12.80
2019-02-25T16:54:22.999Z,12.80
2019-02-25T16:56:54.484Z,12.60
2019-02-25T16:59:25.012Z,12.60
2019-02-25T17:01:57.763Z,12.50
2019-02-25T17:04:27.745Z,12.40
2019-02-25T17:06:57.878Z,12.40
2019-02-25T17:09:29.072Z,12.30
2019-02-25T17:12:00.064Z,12.20
2019-02-25T17:14:29.967Z,12.10
2019-02-25T17:16:59.935Z,12.10
2019-02-25T17:19:29.767Z,12.00
2019-02-25T17:21:59.827Z,11.90
2019-02-25T17:24:30.543Z,11.80
2019-02-25T17:27:01.906Z,11.70
2019-02-25T17:29:31.954Z,11.60
2019-02-25T17:32:03.635Z,11.50
2019-02-25T17:34:34.449Z,11.40
2019-02-25T17:37:06.008Z,11.30
2019-02-25T17:39:37.567Z,11.20
2019-02-25T17:42:08.156Z,11.10
2019-02-25T17:44:38.728Z,11.00
2019-02-25T17:47:11.023Z,10.90
2019-02-25T17:49:43.084Z,10.80
2019-02-25T17:52:14.201Z,10.70
2019-02-25T17:54:43.819Z,10.60
2019-02-25T17:57:14.204Z,10.50
2019-02-25T17:59:44.587Z,10.40
2019-02-25T18:02:14.875Z,10.30
2019-02-25T18:04:46.916Z,10.20
2019-02-25T18:07:21.471Z,10.10
2019-02-25T18:09:50.735Z,10.00
2019-02-25T18:12:20.451Z,9.90
2019-02-25T18:14:50.201Z,9.80
2019-02-25T18:17:25.287Z,9.70
2019-02-25T18:19:57.354Z,9.60
2019-02-25T18:22:26.538Z,9.50
2019-02-25T18:24:55.792Z,9.40
2019-02-25T18:27:24.965Z,9.30
2019-02-25T18:29:54.847Z,9.30
2019-02-25T18:32:25.264Z,9.20
2019-02-25T18:34:55.858Z,9.20
2019-02-25T18:37:25.335Z,9.10
2019-02-25T18:39:56.501Z,9.10
2019-02-25T18:42:25.712Z,9.10
2019-02-25T18:44:55.246Z,9.00
2019-02-25T18:47:25.601Z,9.00
2019-02-25T18:49:56.579Z,8.90
2019-02-25T18:52:27.397Z,8.90
2019-02-25T18:54:57.539Z,8.80
2019-02-25T18:57:28.991Z,8.70
2019-02-25T18:59:59.369Z,8.60
2019-02-25T19:02:31.387Z,8.50
2019-02-25T19:05:02.092Z,8.40
2019-02-25T19:07:33.685Z,8.30
2019-02-25T19:10:03.079Z,8.30
2019-02-25T19:12:32.943Z,8.20
2019-02-25T19:15:03.166Z,8.20
2019-02-25T19:17:33.098Z,8.10
2019-02-25T19:20:02.657Z,8.00
2019-02-25T19:22:35.596Z,8.00
2019-02-25T19:25:07.651Z,7.90
2019-02-25T19:27:36.541Z,7.90
2019-02-25T19:30:06.902Z,7.80
2019-02-25T19:32:39.836Z,7.80
2019-02-25T19:35:10.025Z,7.70
2019-02-25T19:37:40.574Z,7.70
2019-02-25T19:40:13.963Z,7.60
2019-02-25T19:42:43.288Z,7.60
2019-02-25T19:45:13.604Z,7.50
2019-02-25T19:47:43.528Z,7.50
2019-02-25T19:50:13.609Z,7.40
2019-02-25T19:52:44.272Z,7.40
2019-02-25T19:55:15.823Z,7.30
2019-02-25T19:57:45.604Z,7.30
2019-02-25T20:00:22.010Z,7.20
2019-02-25T20:02:49.855Z,7.20
2019-02-25T20:05:21.588Z,7.10
2019-02-25T20:07:50.337Z,7.10
2019-02-25T20:10:19.944Z,7.00
2019-02-25T20:12:50.933Z,7.00
2019-02-25T20:15:24.889Z,6.90
2019-02-25T20:17:53.311Z,6.90
2019-02-25T20:20:24.582Z,6.80
2019-02-25T20:22:54.064Z,6.80
2019-02-25T20:25:24.529Z,6.80
2019-02-25T20:27:55.207Z,6.70
2019-02-25T20:30:28.301Z,6.70
2019-02-25T20:32:58.825Z,6.70
2019-02-25T20:35:29.124Z,6.60
2019-02-25T20:38:00.402Z,6.60
2019-02-25T20:40:31.025Z,6.50
2019-02-25T20:43:03.137Z,6.50
2019-02-25T20:45:33.220Z,6.40
2019-02-25T20:48:03.052Z,6.30
2019-02-25T20:50:33.635Z,6.30
2019-02-25T20:53:05.698Z,6.30
2019-02-25T20:55:36.312Z,6.20
2019-02-25T20:58:05.079Z,6.10
2019-02-25T21:00:36.929Z,6.10
2019-02-25T21:03:05.612Z,6.00
2019-02-25T21:05:34.832Z,6.00
2019-02-25T21:08:04.124Z,6.00
2019-02-25T21:10:35.694Z,5.90
2019-02-25T21:13:04.991Z,5.80
2019-02-25T21:15:36.371Z,5.80
2019-02-25T21:18:07.652Z,5.70
2019-02-25T21:20:37.479Z,5.70
2019-02-25T21:23:10.147Z,5.60
2019-02-25T21:25:39.723Z,5.60
2019-02-25T21:28:09.541Z,5.60
2019-02-25T21:30:41.798Z,5.50
2019-02-25T21:33:13.325Z,5.50
2019-02-25T21:35:41.928Z,5.40
2019-02-25T21:38:11.717Z,5.40
2019-02-25T21:40:41.180Z,5.40
2019-02-25T21:43:14.390Z,5.30
2019-02-25T21:45:41.416Z,5.30
2019-02-25T21:48:10.783Z,5.30
2019-02-25T21:50:40.926Z,5.30
2019-02-25T21:53:13.755Z,5.30
2019-02-25T21:55:42.772Z,5.20
2019-02-25T21:58:11.879Z,5.20
2019-02-25T22:00:44.438Z,5.20
2019-02-25T22:03:15.675Z,5.20
2019-02-25T22:05:44.655Z,5.10
2019-02-25T22:08:14.959Z,5.10
2019-02-25T22:10:45.711Z,5.10
2019-02-25T22:13:17.800Z,5.10
2019-02-25T22:15:46.159Z,5.00
2019-02-25T22:18:15.268Z,5.00
2019-02-25T22:20:45.436Z,5.00
2019-02-25T22:23:15.270Z,4.90
2019-02-25T22:25:44.409Z,4.80
2019-02-25T22:28:13.595Z,4.80
2019-02-25T22:30:43.004Z,4.80
2019-02-25T22:33:24.994Z,4.70
2019-02-25T22:35:46.945Z,4.70
2019-02-25T22:38:17.715Z,4.60
2019-02-25T22:40:46.734Z,4.60
2019-02-25T22:43:16.839Z,4.60
2019-02-25T22:45:49.067Z,4.50
2019-02-25T22:48:21.566Z,4.40
2019-02-25T22:50:55.265Z,4.40
2019-02-25T22:53:22.631Z,4.30
2019-02-25T22:55:54.602Z,4.30
2019-02-25T22:58:23.419Z,4.30
2019-02-25T23:00:58.290Z,4.20
2019-02-25T23:03:27.587Z,4.20
2019-02-25T23:05:57.530Z,4.20
2019-02-25T23:08:27.472Z,4.10
2019-02-25T23:10:56.911Z,4.10
2019-02-25T23:13:28.109Z,4.10
2019-02-25T23:15:57.343Z,4.00
2019-02-25T23:18:28.072Z,4.00
2019-02-25T23:21:00.358Z,3.90
2019-02-25T23:23:30.582Z,3.90
2019-02-25T23:26:00.204Z,3.80
2019-02-25T23:28:30.517Z,3.70
2019-02-25T23:31:00.050Z,3.60
2019-02-25T23:33:29.238Z,3.60
2019-02-25T23:35:58.340Z,3.60
2019-02-25T23:38:33.418Z,3.50
2019-02-25T23:41:05.288Z,3.50
2019-02-25T23:43:35.996Z,3.40
2019-02-25T23:46:25.300Z,3.30
2019-02-25T23:48:54.403Z,3.30
2019-02-25T23:52:19.955Z,3.30
2019-02-25T23:54:49.710Z,3.30
2019-02-25T23:57:21.744Z,3.20
2019-02-25T23:59:53.374Z,3.20
